Time;durP1;ratioP1;P1;durP2;ratioP2;P2;SDS_P1;SDS_P2;PMS_P1;PMS_P2;Temp;Humidity;BMP_temperature;BMP_pressure;BME280_temperature;BME280_humidity;BME280_pressure;Samples;Min_cycle;Max_cycle;Signal;HPM_P1;HPM_P2
2021/11/22 00:02:21;;;;;;;0.57;0.50;;;;;;;6.62;99.38;101156.84;4988670;28;20035;-67
2021/11/22 00:04:46;;;;;;;0.52;0.50;;;;;;;6.62;99.35;101161.44;4992909;28;20041;-66
2021/11/22 00:07:15;;;;;;;0.60;0.50;;;;;;;6.59;99.89;101164.72;4990968;28;20042;-66
2021/11/22 00:09:41;;;;;;;0.55;0.47;;;;;;;6.60;99.51;101169.00;4976891;28;20156;-67
2021/11/22 00:12:07;;;;;;;0.45;0.45;;;;;;;6.56;99.33;101176.06;4991690;28;20484;-66
2021/11/22 00:14:32;;;;;;;0.30;0.30;;;;;;;6.53;99.19;101174.81;4986314;28;20038;-66
2021/11/22 00:16:58;;;;;;;0.40;0.40;;;;;;;6.52;98.97;101173.25;4991426;28;20386;-66
2021/11/22 00:19:24;;;;;;;1.45;0.52;;;;;;;6.50;99.37;101172.78;4992416;28;20030;-66
2021/11/22 00:21:50;;;;;;;2.15;0.40;;;;;;;6.45;99.42;101183.63;4991205;28;20038;-66
2021/11/22 00:24:18;;;;;;;0.40;0.30;;;;;;;6.45;99.59;101180.94;4982122;28;20026;-66
2021/11/22 00:26:47;;;;;;;0.30;0.30;;;;;;;6.48;99.70;101179.53;4985448;28;20045;-66
2021/11/22 00:29:13;;;;;;;0.82;0.50;;;;;;;6.45;99.38;101194.31;4984174;28;20456;-67
2021/11/22 00:32:04;;;;;;;0.22;0.22;;;;;;;6.46;99.33;101198.56;4990351;28;20042;-65
2021/11/22 00:34:50;;;;;;;1.50;0.35;;;;;;;6.43;99.34;101201.84;4984216;28;20120;-65
2021/11/22 00:37:33;;;;;;;0.30;0.30;;;;;;;6.40;98.97;101197.16;4974634;28;20057;-66
2021/11/22 00:40:02;;;;;;;0.45;0.40;;;;;;;6.34;99.30;101209.09;4991968;28;20437;-67
2021/11/22 00:42:28;;;;;;;0.30;0.30;;;;;;;6.31;99.23;101215.06;4990437;28;20034;-66
2021/11/22 00:44:54;;;;;;;0.40;0.40;;;;;;;6.19;98.95;101215.66;4991037;28;20046;-66
2021/11/22 00:47:20;;;;;;;0.30;0.30;;;;;;;6.18;99.57;101221.31;4987800;28;20057;-66
2021/11/22 00:49:47;;;;;;;0.55;0.52;;;;;;;6.20;99.29;101219.91;4990427;28;20030;-66
2021/11/22 00:52:13;;;;;;;3.13;0.35;;;;;;;6.14;99.40;101215.81;4985572;28;20033;-66
2021/11/22 00:54:39;;;;;;;0.47;0.38;;;;;;;6.10;99.72;101220.19;4990987;28;20103;-66
2021/11/22 00:57:05;;;;;;;0.25;0.25;;;;;;;6.10;99.12;101233.56;4991888;28;20030;-66
2021/11/22 00:59:31;;;;;;;0.63;0.57;;;;;;;6.04;99.48;101231.38;4989092;28;20038;-66
2021/11/22 01:01:56;;;;;;;0.55;0.55;;;;;;;6.00;99.02;101236.53;4987548;28;20085;-67
2021/11/22 01:04:22;;;;;;;1.95;0.40;;;;;;;5.98;99.82;101244.06;4990183;28;20042;-67
2021/11/22 01:06:48;;;;;;;0.30;0.30;;;;;;;6.02;99.43;101247.69;4991611;28;20040;-67
2021/11/22 01:09:14;;;;;;;0.55;0.50;;;;;;;5.98;99.12;101259.31;4990478;28;20034;-67
2021/11/22 01:11:43;;;;;;;0.47;0.40;;;;;;;5.95;99.81;101255.38;4984701;28;20058;-67
2021/11/22 01:14:09;;;;;;;0.35;0.30;;;;;;;5.93;99.33;101265.59;4974540;28;20062;-67
2021/11/22 01:16:35;;;;;;;0.45;0.40;;;;;;;5.90;99.45;101268.88;4987509;28;20038;-67
2021/11/22 01:19:03;;;;;;;4.63;0.70;;;;;;;5.88;99.29;101279.09;4991526;28;20030;-66
2021/11/22 01:21:29;;;;;;;0.43;0.43;;;;;;;5.81;99.44;101284.03;4972713;28;20504;-67
2021/11/22 01:23:54;;;;;;;0.55;0.50;;;;;;;5.81;99.85;101291.25;4991357;28;20034;-67
2021/11/22 01:26:20;;;;;;;0.30;0.30;;;;;;;5.70;99.15;101301.44;4986701;28;20041;-67
2021/11/22 01:28:47;;;;;;;0.40;0.40;;;;;;;5.67;100.00;101298.59;4989962;28;20070;-66
2021/11/22 01:31:13;;;;;;;0.40;0.40;;;;;;;5.67;100.00;101298.59;4990219;28;20030;-67
2021/11/22 01:33:39;;;;;;;1.02;0.50;;;;;;;5.72;99.61;101309.13;4989782;28;20026;-67
2021/11/22 01:36:05;;;;;;;0.63;0.63;;;;;;;5.68;99.65;101308.16;4988477;28;20515;-66
2021/11/22 01:38:31;;;;;;;1.08;0.70;;;;;;;5.70;99.85;101314.00;4990511;28;20037;-67
2021/11/22 01:40:56;;;;;;;0.85;0.50;;;;;;;5.61;99.67;101316.63;4989635;28;20501;-67
2021/11/22 01:43:23;;;;;;;0.60;0.60;;;;;;;5.59;100.00;101316.16;4988532;28;20100;-67
2021/11/22 01:45:50;;;;;;;0.55;0.55;;;;;;;5.58;100.00;101319.09;4990008;28;20438;-67
2021/11/22 01:48:20;;;;;;;;;;;;;;;5.59;99.95;101328.72;4991697;28;20409;-66
2021/11/22 01:50:48;;;;;;;0.77;0.40;;;;;;;5.62;99.97;101328.88;4989542;28;19924;-67
2021/11/22 01:53:15;;;;;;;0.40;0.38;;;;;;;5.59;100.00;101336.72;4987378;28;20030;-67
2021/11/22 01:55:43;;;;;;;0.60;0.50;;;;;;;5.56;99.89;101342.66;4990418;28;20042;-67
2021/11/22 01:58:09;;;;;;;0.68;0.30;;;;;;;5.52;100.00;101349.72;4985381;28;20210;-67
2021/11/22 02:00:42;;;;;;;0.40;0.40;;;;;;;5.55;100.00;101346.44;4984922;28;20520;-67
2021/11/22 02:03:09;;;;;;;0.20;0.20;;;;;;;5.53;99.98;101355.53;4989947;28;20088;-67
2021/11/22 02:05:37;;;;;;;0.38;0.38;;;;;;;5.52;99.92;101357.72;4988333;28;20034;-67
2021/11/22 02:08:04;;;;;;;0.47;0.47;;;;;;;5.44;99.89;101357.34;4991116;28;20516;-67
2021/11/22 02:10:30;;;;;;;0.73;0.50;;;;;;;5.41;100.00;101363.31;4968815;28;20108;-67
2021/11/22 02:12:57;;;;;;;1.10;0.52;;;;;;;5.40;100.00;101367.06;4989448;28;20058;-66
2021/11/22 02:15:24;;;;;;;1.15;0.60;;;;;;;5.39;100.00;101370.81;4988652;28;20041;-67
2021/11/22 02:17:51;;;;;;;0.73;0.40;;;;;;;5.40;99.88;101376.97;4989732;28;20030;-67
2021/11/22 02:20:23;;;;;;;0.30;0.30;;;;;;;5.33;99.39;101374.69;4989338;28;20114;-67
2021/11/22 02:22:49;;;;;;;;;;;;;;;5.26;99.81;101384.22;4980790;28;20043;-67
2021/11/22 02:25:17;;;;;;;0.52;0.40;;;;;;;5.21;100.00;101381.66;4982505;28;19930;-67
2021/11/22 02:27:45;;;;;;;0.68;0.38;;;;;;;5.20;100.00;101383.53;4990370;28;20026;-67
2021/11/22 02:30:12;;;;;;;0.40;0.40;;;;;;;5.19;100.00;101381.94;4983760;28;20121;-67
2021/11/22 02:32:40;;;;;;;0.30;0.30;;;;;;;5.14;100.00;101383.94;4988665;28;20096;-67
2021/11/22 02:35:08;;;;;;;0.20;0.20;;;;;;;5.13;100.00;101387.72;4990542;28;20034;-67
2021/11/22 02:37:34;;;;;;;0.47;0.30;;;;;;;5.12;100.00;101381.59;4988114;28;20480;-67
2021/11/22 02:40:00;;;;;;;0.30;0.30;;;;;;;5.08;100.00;101390.47;4983495;28;20037;-67
2021/11/22 02:42:30;;;;;;;0.38;0.30;;;;;;;5.02;100.00;101389.81;4989143;28;20034;-67
2021/11/22 02:44:59;;;;;;;0.88;0.43;;;;;;;5.05;100.00;101394.53;4991880;28;20034;-67
2021/11/22 02:47:27;;;;;;;1.52;0.35;;;;;;;5.09;99.50;101400.84;4994631;28;20034;-67
2021/11/22 02:49:53;;;;;;;0.40;0.40;;;;;;;5.10;99.95;101413.13;4972609;28;20034;-67
2021/11/22 02:52:22;;;;;;;0.68;0.30;;;;;;;5.05;99.76;101407.88;4990224;28;20041;-67
2021/11/22 02:54:47;;;;;;;0.45;0.45;;;;;;;5.02;99.48;101416.47;4992518;28;20492;-66
2021/11/22 02:57:13;;;;;;;0.57;0.57;;;;;;;4.99;99.54;101410.97;4992025;28;20092;-66
2021/11/22 02:59:40;;;;;;;0.50;0.50;;;;;;;4.95;99.22;101410.78;4991022;28;20052;-67
2021/11/22 03:02:15;;;;;;;0.75;0.75;;;;;;;4.91;99.73;101419.66;4984080;28;20034;-66
2021/11/22 03:04:42;;;;;;;0.70;0.70;;;;;;;4.90;99.46;101420.72;4993902;28;20073;-66
2021/11/22 03:07:09;;;;;;;0.90;0.70;;;;;;;4.88;99.79;101429.03;4993328;28;20445;-65
2021/11/22 03:09:36;;;;;;;1.33;0.80;;;;;;;4.88;99.51;101428.28;4991732;28;20041;-66
2021/11/22 03:12:07;;;;;;;2.05;0.50;;;;;;;4.83;99.56;101428.34;4992382;28;20045;-67
2021/11/22 03:14:34;;;;;;;0.60;0.60;;;;;;;4.83;99.09;101429.16;4990551;28;20045;-69
2021/11/22 03:17:00;;;;;;;0.75;0.65;;;;;;;4.79;99.17;101438.84;4990992;28;20033;-66
2021/11/22 03:19:26;;;;;;;0.80;0.43;;;;;;;4.76;99.78;101426.09;4993508;28;20035;-66
2021/11/22 03:21:52;;;;;;;0.50;0.50;;;;;;;4.76;99.04;101439.44;4992685;28;20385;-66
2021/11/22 03:24:19;;;;;;;1.08;0.70;;;;;;;4.70;98.88;101437.16;4990733;28;20038;-67
2021/11/22 03:26:48;;;;;;;0.75;0.65;;;;;;;4.65;99.35;101440.69;4993250;28;20034;-66
2021/11/22 03:29:14;;;;;;;3.90;0.70;;;;;;;4.61;99.49;101439.69;4974105;28;20041;-66
2021/11/22 03:31:40;;;;;;;0.95;0.82;;;;;;;4.60;99.24;101451.47;4992879;28;20030;-66
2021/11/22 03:34:07;;;;;;;1.35;0.73;;;;;;;4.55;99.55;101447.00;4991969;28;20113;-66
2021/11/22 03:36:34;;;;;;;0.52;0.52;;;;;;;4.48;99.65;101451.94;4993060;28;20030;-66
2021/11/22 03:39:01;;;;;;;0.77;0.65;;;;;;;4.52;99.75;101454.81;4993194;28;20038;-66
2021/11/22 03:41:29;;;;;;;0.95;0.52;;;;;;;4.52;99.51;101452.16;4990601;28;20038;-67
2021/11/22 03:44:01;;;;;;;0.40;0.40;;;;;;;4.50;99.60;101455.13;4990700;28;20034;-66
2021/11/22 03:46:27;;;;;;;;;;;;;;;4.47;99.19;101465.56;4993211;28;20392;-66
2021/11/22 03:48:53;;;;;;;0.45;0.40;;;;;;;4.49;98.99;101466.84;4989116;28;19914;-65
2021/11/22 03:51:20;;;;;;;0.35;0.35;;;;;;;4.50;99.19;101467.66;4991203;28;20116;-66
2021/11/22 03:53:46;;;;;;;0.30;0.30;;;;;;;4.52;98.77;101462.81;4991924;28;20034;-67
2021/11/22 03:56:12;;;;;;;0.82;0.38;;;;;;;4.49;99.09;101464.19;4990665;28;20042;-65
2021/11/22 03:58:37;;;;;;;0.55;0.47;;;;;;;4.44;98.92;101463.47;4987826;28;20393;-66
2021/11/22 04:01:04;;;;;;;0.40;0.40;;;;;;;4.45;98.87;101462.41;4991961;28;20027;-67
2021/11/22 04:03:30;;;;;;;0.30;0.30;;;;;;;4.43;98.96;101461.91;4980147;28;20035;-67
2021/11/22 04:05:56;;;;;;;0.40;0.40;;;;;;;4.36;99.38;101469.47;4989080;28;20113;-68
2021/11/22 04:08:22;;;;;;;0.77;0.68;;;;;;;4.34;99.32;101468.97;4991166;28;20135;-66
2021/11/22 04:10:48;;;;;;;0.82;0.40;;;;;;;4.35;99.17;101474.03;4991306;28;20499;-66
2021/11/22 04:13:13;;;;;;;0.30;0.30;;;;;;;4.36;99.58;101485.47;4993245;28;20038;-67
2021/11/22 04:15:39;;;;;;;0.63;0.40;;;;;;;4.33;99.49;101478.88;4990558;28;20485;-66
2021/11/22 04:18:07;;;;;;;0.60;0.50;;;;;;;4.31;99.66;101483.72;4990456;28;20038;-66
2021/11/22 04:20:35;;;;;;;0.22;0.22;;;;;;;4.26;99.66;101485.63;4989409;28;20069;-66
2021/11/22 04:23:02;;;;;;;1.48;0.60;;;;;;;4.25;99.92;101489.41;4992327;28;20374;-65
2021/11/22 04:25:27;;;;;;;0.30;0.30;;;;;;;4.27;100.00;101495.22;4989344;28;20038;-65
2021/11/22 04:27:53;;;;;;;0.30;0.30;;;;;;;4.28;99.92;101488.81;4992536;28;20552;-66
2021/11/22 04:30:19;;;;;;;0.60;0.38;;;;;;;4.22;99.77;101488.09;4989087;28;20034;-66
2021/11/22 04:32:45;;;;;;;0.30;0.30;;;;;;;4.26;100.00;101493.63;4976250;28;20027;-65
2021/11/22 04:35:15;;;;;;;0.40;0.32;;;;;;;4.27;100.00;101501.38;4988726;28;20022;-66
2021/11/22 04:37:41;;;;;;;0.47;0.40;;;;;;;4.20;100.00;101492.94;4990975;28;20026;-66
2021/11/22 04:40:12;;;;;;;0.85;0.25;;;;;;;4.24;100.00;101496.59;4989258;28;20448;-65
2021/11/22 04:42:38;;;;;;;0.60;0.60;;;;;;;4.22;100.00;101504.09;4981405;28;20121;-66
2021/11/22 04:45:04;;;;;;;2.00;0.60;;;;;;;4.18;100.00;101499.66;4990701;28;20038;-66
2021/11/22 04:47:30;;;;;;;0.35;0.35;;;;;;;4.14;100.00;101504.75;4991497;28;20038;-66
2021/11/22 04:49:56;;;;;;;0.40;0.30;;;;;;;4.18;100.00;101511.09;4987161;28;20045;-66
2021/11/22 04:52:22;;;;;;;0.63;0.40;;;;;;;4.21;100.00;101520.38;4988933;28;20133;-66
2021/11/22 04:54:48;;;;;;;0.63;0.60;;;;;;;4.19;100.00;101527.88;4991763;28;20590;-67
2021/11/22 04:57:15;;;;;;;1.90;0.65;;;;;;;4.11;100.00;101531.19;4991801;28;20153;-66
2021/11/22 04:59:42;;;;;;;0.30;0.30;;;;;;;4.00;100.00;101541.22;4989265;28;20038;-65
2021/11/22 05:02:09;;;;;;;0.90;0.90;;;;;;;4.01;100.00;101542.00;4982100;28;20374;-66
2021/11/22 05:04:35;;;;;;;0.60;0.60;;;;;;;4.07;100.00;101548.84;4988483;28;20477;-66
2021/11/22 05:07:02;;;;;;;0.50;0.50;;;;;;;4.07;100.00;101554.97;4989925;28;20034;-67
2021/11/22 05:09:28;;;;;;;0.50;0.50;;;;;;;4.10;100.00;101562.41;4983307;28;20158;-66
2021/11/22 05:11:54;;;;;;;3.03;0.47;;;;;;;4.04;100.00;101565.41;4990102;28;20105;-66
2021/11/22 05:14:20;;;;;;;0.60;0.60;;;;;;;4.05;100.00;101559.00;4991348;28;20109;-66
2021/11/22 05:16:45;;;;;;;0.57;0.57;;;;;;;4.08;100.00;101569.09;4987213;28;20041;-66
2021/11/22 05:19:13;;;;;;;0.60;0.60;;;;;;;4.04;100.00;101568.88;4990365;28;20042;-66
2021/11/22 05:21:38;;;;;;;0.73;0.47;;;;;;;4.07;100.00;101564.81;4989677;28;20049;-67
2021/11/22 05:24:06;;;;;;;0.47;0.45;;;;;;;4.02;100.00;101572.91;4977087;28;20042;-66
2021/11/22 05:26:32;;;;;;;0.70;0.60;;;;;;;3.95;100.00;101575.91;4990065;28;20062;-66
2021/11/22 05:29:02;;;;;;;0.73;0.35;;;;;;;4.01;100.00;101576.63;4989840;28;20026;-66
2021/11/22 05:31:28;;;;;;;0.50;0.50;;;;;;;3.97;100.00;101575.66;4986349;28;20185;-66
2021/11/22 05:33:53;;;;;;;0.50;0.50;;;;;;;3.91;100.00;101582.13;4989688;28;20664;-66
2021/11/22 05:36:20;;;;;;;0.40;0.40;;;;;;;3.93;100.00;101587.94;4986945;28;20038;-67
2021/11/22 05:38:47;;;;;;;0.30;0.30;;;;;;;3.96;100.00;101587.38;4989102;28;20065;-66
2021/11/22 05:41:13;;;;;;;0.43;0.43;;;;;;;3.89;100.00;101590.38;4989257;28;20045;-67
2021/11/22 05:43:40;;;;;;;0.35;0.35;;;;;;;3.91;100.00;101595.44;4990280;28;20022;-66
2021/11/22 05:46:08;;;;;;;0.70;0.57;;;;;;;3.97;100.00;101594.28;4991051;28;20091;-65
2021/11/22 05:48:34;;;;;;;2.17;0.50;;;;;;;3.87;100.00;101595.19;4990791;28;20129;-66
2021/11/22 05:51:01;;;;;;;0.40;0.40;;;;;;;3.83;100.00;101599.53;4989323;28;20156;-66
2021/11/22 05:53:33;;;;;;;1.05;0.63;;;;;;;3.85;100.00;101601.91;4986989;28;20105;-67
2021/11/22 05:56:00;;;;;;;0.65;0.60;;;;;;;3.88;100.00;101601.31;4989537;28;20400;-67
2021/11/22 05:58:26;;;;;;;0.20;0.20;;;;;;;3.89;100.00;101602.91;4986613;28;20038;-67
2021/11/22 06:00:52;;;;;;;0.63;0.47;;;;;;;3.86;100.00;101604.28;4985609;28;20062;-66
2021/11/22 06:03:17;;;;;;;1.83;0.73;;;;;;;3.83;100.00;101607.53;4987999;28;20061;-66
2021/11/22 06:05:43;;;;;;;0.52;0.43;;;;;;;3.82;100.00;101629.09;4990750;28;20069;-66
2021/11/22 06:08:08;;;;;;;1.10;0.50;;;;;;;3.81;100.00;101632.84;4989276;28;20104;-67
2021/11/22 06:10:34;;;;;;;0.80;0.40;;;;;;;3.79;100.00;101632.34;4984971;28;20100;-66
2021/11/22 06:13:00;;;;;;;1.95;0.88;;;;;;;3.77;100.00;101637.97;4988980;28;20030;-67
2021/11/22 06:15:26;;;;;;;0.40;0.40;;;;;;;3.77;100.00;101637.97;4987719;28;20503;-66
2021/11/22 06:17:52;;;;;;;0.93;0.65;;;;;;;3.82;100.00;101635.22;4986620;28;20034;-67
2021/11/22 06:20:18;;;;;;;1.33;0.40;;;;;;;3.80;100.00;101645.38;4987973;28;20745;-68
2021/11/22 06:22:44;;;;;;;0.47;0.47;;;;;;;3.79;100.00;101651.00;4991273;28;20038;-67
2021/11/22 06:25:10;;;;;;;0.47;0.30;;;;;;;3.77;100.00;101643.28;4993255;28;20038;-67
2021/11/22 06:27:36;;;;;;;0.93;0.70;;;;;;;3.76;100.00;101647.00;4993783;28;20026;-66
2021/11/22 06:30:05;;;;;;;1.80;0.63;;;;;;;3.76;100.00;101648.88;4989934;28;20124;-67
2021/11/22 06:32:31;;;;;;;0.47;0.47;;;;;;;3.73;100.00;101660.09;4989873;28;20029;-66
2021/11/22 06:34:58;;;;;;;5.35;0.80;;;;;;;3.76;100.00;101659.53;4995556;28;20038;-66
2021/11/22 06:37:26;;;;;;;0.73;0.70;;;;;;;3.70;100.00;101658.03;4992661;28;20038;-67
2021/11/22 06:39:54;;;;;;;0.50;0.50;;;;;;;3.70;100.00;101666.78;4992800;28;20262;-66
2021/11/22 06:42:21;;;;;;;0.65;0.65;;;;;;;3.70;100.00;101672.13;4981483;28;20058;-67
2021/11/22 06:44:48;;;;;;;0.85;0.75;;;;;;;3.68;100.00;101672.41;4997039;28;20042;-66
2021/11/22 06:47:15;;;;;;;0.65;0.45;;;;;;;3.71;100.00;101679.03;4993942;28;20034;-66
2021/11/22 06:49:41;;;;;;;1.88;0.82;;;;;;;3.72;100.00;101685.16;4995214;28;20540;-67
2021/11/22 06:52:06;;;;;;;1.58;0.45;;;;;;;3.76;100.00;101691.50;4992177;28;20030;-67
2021/11/22 06:54:32;;;;;;;0.68;0.68;;;;;;;3.68;100.00;101696.38;4995860;28;20042;-66
2021/11/22 06:56:58;;;;;;;1.50;0.70;;;;;;;3.68;100.00;101693.72;4993036;28;20030;-66
2021/11/22 06:59:27;;;;;;;1.40;0.70;;;;;;;3.71;100.00;101702.22;4995144;28;20405;-66
2021/11/22 07:01:53;;;;;;;0.75;0.65;;;;;;;3.68;100.00;101704.34;4974105;28;20614;-67
2021/11/22 07:04:18;;;;;;;0.93;0.70;;;;;;;3.67;100.00;101702.78;4995968;28;20038;-67
2021/11/22 07:06:44;;;;;;;1.10;0.63;;;;;;;3.67;100.00;101710.78;4988265;28;20041;-67
2021/11/22 07:09:10;;;;;;;0.93;0.60;;;;;;;3.71;100.00;101712.88;4995575;28;20030;-66
2021/11/22 07:11:36;;;;;;;1.10;0.80;;;;;;;3.70;100.00;101713.94;4995248;28;20042;-67
2021/11/22 07:14:03;;;;;;;1.85;0.63;;;;;;;3.71;100.00;101723.50;4992074;28;20101;-67
2021/11/22 07:16:30;;;;;;;1.08;0.90;;;;;;;3.68;100.00;101717.69;4993332;28;20124;-66
2021/11/22 07:18:56;;;;;;;1.13;0.70;;;;;;;3.72;100.00;101727.78;4994403;28;20030;-67
2021/11/22 07:21:21;;;;;;;1.27;0.95;;;;;;;3.71;100.00;101720.84;4984100;28;20173;-67
2021/11/22 07:23:47;;;;;;;2.30;1.08;;;;;;;3.75;100.00;101727.19;4993929;28;20229;-67
2021/11/22 07:26:13;;;;;;;0.88;0.75;;;;;;;3.73;100.00;101740.81;4995036;28;20053;-66
2021/11/22 07:28:39;;;;;;;2.88;1.45;;;;;;;3.74;100.00;101744.25;4992605;28;20038;-67
2021/11/22 07:31:05;;;;;;;0.85;0.70;;;;;;;3.78;100.00;101751.41;4990328;28;20041;-67
2021/11/22 07:33:31;;;;;;;1.33;0.80;;;;;;;3.78;100.00;101763.91;4992485;28;20038;-67
2021/11/22 07:35:57;;;;;;;2.95;1.25;;;;;;;3.77;100.00;101757.81;4991843;28;20110;-67
2021/11/22 07:38:22;;;;;;;1.60;1.02;;;;;;;3.77;100.00;101749.81;4986569;28;20053;-67
2021/11/22 07:40:48;;;;;;;1.90;1.25;;;;;;;3.76;100.00;101764.19;4990852;28;20542;-67
2021/11/22 07:43:17;;;;;;;1.08;0.90;;;;;;;3.77;100.00;101765.00;4990790;28;20026;-67
2021/11/22 07:45:43;;;;;;;1.20;0.95;;;;;;;3.79;100.00;101768.19;4989983;28;20536;-67
2021/11/22 07:48:10;;;;;;;2.28;1.27;;;;;;;3.79;100.00;101773.50;4991482;28;20150;-67
2021/11/22 07:50:38;;;;;;;1.60;1.02;;;;;;;3.80;100.00;101780.41;4989958;28;20531;-67
2021/11/22 07:53:04;;;;;;;4.65;1.25;;;;;;;3.82;100.00;101780.91;4989215;28;20046;-67
2021/11/22 07:55:30;;;;;;;0.90;0.82;;;;;;;3.87;100.00;101781.66;4990056;28;20038;-67
2021/11/22 07:57:56;;;;;;;1.65;1.00;;;;;;;3.84;100.00;101784.91;4989091;28;20076;-67
2021/11/22 08:00:24;;;;;;;1.38;1.10;;;;;;;3.86;100.00;101789.94;4987627;28;20065;-67
2021/11/22 08:02:50;;;;;;;2.42;1.65;;;;;;;3.88;100.00;101787.78;4988242;28;20035;-67
2021/11/22 08:05:16;;;;;;;2.83;1.25;;;;;;;3.89;100.00;101784.06;4974435;28;20382;-67
2021/11/22 08:07:42;;;;;;;2.95;1.50;;;;;;;3.93;100.00;101785.09;4990641;28;20034;-68
2021/11/22 08:10:47;;;;;;;1.77;1.15;;;;;;;3.94;100.00;101786.66;4987146;28;20038;-67
2021/11/22 08:13:06;;;;;;;1.10;1.00;;;;;;;3.97;100.00;101792.22;4987144;28;20042;-67
2021/11/22 08:15:33;;;;;;;6.53;1.10;;;;;;;4.06;100.00;101789.75;4984424;28;20046;-67
2021/11/22 08:18:02;;;;;;;2.53;1.30;;;;;;;4.07;100.00;101792.13;4991510;28;20038;-67
2021/11/22 08:20:48;;;;;;;2.13;1.30;;;;;;;4.11;100.00;101793.16;4988286;28;20069;-67
2021/11/22 08:23:13;;;;;;;3.13;1.77;;;;;;;4.14;100.00;101799.78;4950475;29;20155;-67
2021/11/22 08:25:39;;;;;;;3.20;1.45;;;;;;;4.24;100.00;101810.34;4951878;29;20133;-67
2021/11/22 08:28:05;;;;;;;2.38;1.50;;;;;;;4.32;100.00;101807.03;4950956;29;20039;-67
2021/11/22 08:30:33;;;;;;;2.22;1.27;;;;;;;4.35;100.00;101812.63;4946721;28;20466;-67
2021/11/22 08:32:58;;;;;;;1.85;1.40;;;;;;;4.44;100.00;101818.09;4950556;29;20107;-67
2021/11/22 08:35:28;;;;;;;1.08;0.90;;;;;;;4.51;100.00;101814.00;4938937;29;20527;-67
2021/11/22 08:37:54;;;;;;;2.75;1.50;;;;;;;4.58;100.00;101811.81;4950202;29;20126;-67
2021/11/22 08:40:22;;;;;;;1.83;1.25;;;;;;;4.61;100.00;101818.41;4930307;29;20143;-67
2021/11/22 08:42:49;;;;;;;2.70;1.55;;;;;;;4.71;100.00;101818.28;4949279;28;20039;-67
2021/11/22 08:45:15;;;;;;;2.60;1.50;;;;;;;4.77;100.00;101817.16;4945041;29;20262;-67
2021/11/22 08:47:41;;;;;;;1.98;1.25;;;;;;;4.88;100.00;101823.94;4948484;29;20054;-67
2021/11/22 08:50:11;;;;;;;4.90;1.15;;;;;;;4.99;100.00;101822.75;4945656;28;20162;-68
2021/11/22 08:52:36;;;;;;;2.80;1.10;;;;;;;5.10;100.00;101829.50;4948115;28;20038;-67
2021/11/22 08:55:04;;;;;;;3.38;1.27;;;;;;;5.21;100.00;101836.28;4944954;28;20039;-67
2021/11/22 08:57:30;;;;;;;1.85;0.98;;;;;;;5.34;100.00;101827.53;4944163;28;20458;-67
2021/11/22 08:59:55;;;;;;;2.05;1.30;;;;;;;5.45;100.00;101837.00;4959984;28;20050;-67
2021/11/22 09:02:21;;;;;;;1.55;0.98;;;;;;;5.55;100.00;101837.91;4982856;28;20045;-67
2021/11/22 09:04:49;;;;;;;2.20;1.30;;;;;;;5.64;100.00;101841.50;4989039;28;20026;-67
2021/11/22 09:07:15;;;;;;;2.90;1.23;;;;;;;5.66;100.00;101836.66;4990411;28;20037;-67
2021/11/22 09:09:41;;;;;;;4.10;1.40;;;;;;;5.72;100.00;101843.50;4989768;28;20082;-67
2021/11/22 09:12:07;;;;;;;1.63;1.00;;;;;;;5.83;100.00;101839.56;4987876;28;20432;-67
2021/11/22 09:14:32;;;;;;;9.07;1.58;;;;;;;5.91;100.00;101847.75;4991912;28;20049;-67
2021/11/22 09:16:58;;;;;;;1.15;0.95;;;;;;;5.98;100.00;101844.72;4991672;28;20038;-67
2021/11/22 09:19:44;;;;;;;1.70;1.38;;;;;;;6.02;100.00;101849.16;4987024;28;20409;-67
2021/11/22 09:22:11;;;;;;;10.32;1.55;;;;;;;6.07;100.00;101856.31;4930372;29;20071;-67
2021/11/22 09:24:39;;;;;;;3.67;1.35;;;;;;;6.10;100.00;101858.38;4927048;29;20767;-67
2021/11/22 09:27:05;;;;;;;2.28;1.58;;;;;;;6.19;100.00;101861.97;4928339;29;20048;-67
2021/11/22 09:29:31;;;;;;;1.42;1.10;;;;;;;6.28;100.00;101870.91;4925538;29;20102;-67
2021/11/22 09:31:57;;;;;;;1.38;1.10;;;;;;;6.37;100.00;101863.75;4925391;29;20039;-67
2021/11/22 09:34:23;;;;;;;4.20;1.10;;;;;;;6.41;100.00;101870.09;4926313;29;20467;-67
2021/11/22 09:36:48;;;;;;;2.40;1.27;;;;;;;6.47;100.00;101873.47;4926767;29;20122;-67
2021/11/22 09:39:18;;;;;;;2.33;1.38;;;;;;;6.53;100.00;101875.78;4925704;29;20046;-67
2021/11/22 09:41:47;;;;;;;1.63;1.33;;;;;;;6.54;100.00;101876.56;4928325;29;20040;-67
2021/11/22 09:44:23;;;;;;;1.80;1.00;;;;;;;6.62;100.00;101887.34;4930275;29;20487;-67
2021/11/22 09:46:50;;;;;;;1.30;1.05;;;;;;;6.64;100.00;101887.09;4925781;29;20178;-67
2021/11/22 09:49:20;;;;;;;2.00;1.20;;;;;;;6.68;100.00;101878.13;4921073;29;20086;-67
2021/11/22 09:51:46;;;;;;;2.45;1.42;;;;;;;6.74;100.00;101873.47;4929078;29;20159;-67
2021/11/22 09:54:12;;;;;;;1.95;1.25;;;;;;;6.75;100.00;101883.91;4925910;29;20103;-67
2021/11/22 09:56:38;;;;;;;2.63;1.23;;;;;;;6.79;100.00;101878.75;4927403;29;20040;-67
2021/11/22 09:59:05;;;;;;;1.45;1.05;;;;;;;6.87;99.98;101886.84;4955191;28;20046;-67
2021/11/22 10:01:34;;;;;;;2.75;1.35;;;;;;;6.92;99.99;101884.09;4988524;28;20042;-67
2021/11/22 10:04:04;;;;;;;2.20;1.13;;;;;;;7.00;99.58;101886.06;4989861;28;20038;-67
2021/11/22 10:06:46;;;;;;;2.55;1.02;;;;;;;7.02;99.49;101870.50;4989674;28;20062;-67
2021/11/22 10:09:30;;;;;;;;;;;;;;;7.06;99.27;101879.50;4990903;28;20037;-67
2021/11/22 10:12:14;;;;;;;2.00;1.05;;;;;;;7.13;98.91;101879.88;4975907;28;20168;-67
2021/11/22 10:14:53;;;;;;;1.92;1.25;;;;;;;7.16;98.61;101878.50;4983777;28;20516;-67
2021/11/22 10:17:24;;;;;;;2.45;1.23;;;;;;;7.20;98.20;101880.25;4986143;28;20045;-67
2021/11/22 10:20:06;;;;;;;1.90;0.93;;;;;;;7.25;98.02;101874.81;4988245;28;20050;-67
2021/11/22 10:22:44;;;;;;;1.33;1.13;;;;;;;7.32;97.93;101870.91;4988751;28;20030;-67
2021/11/22 10:25:37;;;;;;;1.52;1.23;;;;;;;7.38;97.15;101880.41;4981407;28;20030;-67
2021/11/22 10:28:12;;;;;;;1.65;0.95;;;;;;;7.41;97.32;101874.44;4985777;28;20117;-67
2021/11/22 10:30:48;;;;;;;1.30;0.88;;;;;;;7.42;97.55;101886.75;4987803;28;20117;-67
2021/11/22 10:33:20;;;;;;;1.92;1.00;;;;;;;7.39;96.82;101882.81;4986312;28;20396;-67
2021/11/22 10:35:48;;;;;;;1.05;0.95;;;;;;;7.44;97.12;101889.91;4987879;28;20817;-67
2021/11/22 10:38:26;;;;;;;0.60;0.60;;;;;;;7.44;97.02;101890.72;4983356;28;20048;-67
2021/11/22 10:41:04;;;;;;;1.10;0.80;;;;;;;7.48;96.39;101890.91;4987221;28;20068;-67
2021/11/22 10:43:31;;;;;;;1.20;0.73;;;;;;;7.45;96.68;101888.84;4986914;28;20081;-67
2021/11/22 10:45:57;;;;;;;0.68;0.68;;;;;;;7.45;95.32;101884.28;4988281;28;20738;-67
2021/11/22 10:48:26;;;;;;;1.10;0.70;;;;;;;7.43;95.42;101896.38;4986104;28;20038;-67
2021/11/22 10:51:27;;;;;;;1.67;0.80;;;;;;;7.42;95.80;101884.06;4984929;28;20042;-67
2021/11/22 10:54:06;;;;;;;2.27;0.70;;;;;;;7.40;95.68;101895.09;4975178;28;20456;-68
2021/11/22 10:56:38;;;;;;;0.75;0.68;;;;;;;7.45;95.31;101894.19;4985754;28;21123;-67
2021/11/22 10:59:16;;;;;;;1.08;0.60;;;;;;;7.39;95.07;101890.84;4986689;28;20037;-68
2021/11/22 11:01:51;;;;;;;0.80;0.70;;;;;;;7.39;95.48;101892.72;4987876;28;20054;-68
2021/11/22 11:04:27;;;;;;;0.85;0.77;;;;;;;7.45;94.91;101891.50;4987662;28;20034;-68
2021/11/22 11:07:00;;;;;;;0.65;0.52;;;;;;;7.46;94.33;101890.41;4981801;28;20409;-67
2021/11/22 11:09:52;;;;;;;1.40;0.80;;;;;;;7.46;93.63;101893.88;4986175;28;20044;-67
2021/11/22 11:12:21;;;;;;;1.23;0.73;;;;;;;7.44;93.00;101895.28;4974466;28;20134;-68
2021/11/22 11:14:52;;;;;;;1.75;0.80;;;;;;;7.47;93.25;101894.69;4979363;28;20057;-67
2021/11/22 11:17:23;;;;;;;0.65;0.43;;;;;;;7.43;93.45;101889.16;4993495;28;20117;-67
2021/11/22 11:19:55;;;;;;;2.15;0.70;;;;;;;7.46;93.02;101893.88;4991433;28;20092;-67
2021/11/22 11:22:26;;;;;;;1.02;0.77;;;;;;;7.50;92.30;101892.19;4990663;28;20023;-68
2021/11/22 11:24:51;;;;;;;1.98;1.08;;;;;;;7.52;92.21;101891.88;4983474;28;20046;-67
2021/11/22 11:27:18;;;;;;;1.95;0.50;;;;;;;7.53;92.16;101894.25;4990083;28;20104;-67
2021/11/22 11:29:44;;;;;;;0.45;0.43;;;;;;;7.55;91.82;101891.28;4989581;28;20243;-67
2021/11/22 11:32:10;;;;;;;0.80;0.52;;;;;;;7.58;90.63;101888.78;4987762;28;20037;-67
2021/11/22 11:34:42;;;;;;;0.47;0.47;;;;;;;7.59;90.56;101889.59;4989629;28;20072;-67